createdAt,value
2019-03-28T00:01:07.524Z,15.37
2019-03-28T00:03:37.697Z,15.03
2019-03-28T00:06:07.729Z,15.73
2019-03-28T00:08:37.748Z,15.40
2019-03-28T00:11:07.854Z,14.70
2019-03-28T00:13:37.973Z,15.33
2019-03-28T00:16:08.160Z,15.17
2019-03-28T00:18:38.431Z,14.73
2019-03-28T00:21:10.637Z,14.57
2019-03-28T00:24:14.892Z,14.43
2019-03-28T00:26:45.295Z,13.87
2019-03-28T00:29:15.388Z,15.30
2019-03-28T00:31:47.908Z,13.30
2019-03-28T00:34:17.324Z,17.13
2019-03-28T00:36:47.376Z,15.13
2019-03-28T00:39:17.532Z,12.43
2019-03-28T00:41:47.635Z,13.27
2019-03-28T00:44:17.884Z,14.07
2019-03-28T00:46:48.024Z,14.47
2019-03-28T00:49:18.270Z,14.60
2019-03-28T00:51:48.256Z,14.67
2019-03-28T00:54:18.321Z,15.23
2019-03-28T00:56:48.357Z,15.53
2019-03-28T00:59:18.672Z,15.03
2019-03-28T01:01:48.728Z,13.73
2019-03-28T01:04:18.782Z,14.27
2019-03-28T01:06:48.862Z,14.63
2019-03-28T01:09:18.931Z,15.03
2019-03-28T01:11:49.026Z,15.17
2019-03-28T01:14:19.448Z,15.73
2019-03-28T01:16:49.477Z,16.07
2019-03-28T01:19:19.621Z,14.83
2019-03-28T01:21:49.788Z,15.87
2019-03-28T01:24:20.213Z,15.90
2019-03-28T01:26:57.148Z,15.90
2019-03-28T01:29:22.848Z,15.37
2019-03-28T01:31:53.103Z,15.53
2019-03-28T01:34:23.154Z,15.70
2019-03-28T01:36:53.275Z,14.43
2019-03-28T01:39:23.403Z,16.37
2019-03-28T01:41:53.864Z,16.17
2019-03-28T01:44:24.077Z,15.20
2019-03-28T01:46:54.279Z,15.37
2019-03-28T01:49:24.424Z,15.93
2019-03-28T01:51:54.974Z,15.73
2019-03-28T01:54:25.053Z,15.63
2019-03-28T01:56:55.417Z,15.87
2019-03-28T01:59:25.511Z,16.23
2019-03-28T02:01:55.688Z,16.60
2019-03-28T02:04:25.829Z,16.47
2019-03-28T02:06:55.921Z,16.70
2019-03-28T02:09:25.954Z,17.10
2019-03-28T02:11:55.990Z,15.80
2019-03-28T02:14:26.127Z,16.97
2019-03-28T02:16:56.168Z,24.07
2019-03-28T02:19:26.181Z,18.13
2019-03-28T02:21:56.231Z,17.37
2019-03-28T02:24:26.603Z,15.80
2019-03-28T02:26:56.719Z,20.37
2019-03-28T02:29:26.877Z,15.63
2019-03-28T02:31:57.042Z,15.80
2019-03-28T02:34:27.128Z,16.23
2019-03-28T02:36:57.326Z,14.63
2019-03-28T02:39:27.727Z,14.63
2019-03-28T02:41:57.782Z,14.17
2019-03-28T02:44:27.915Z,14.47
2019-03-28T02:46:58.027Z,15.90
2019-03-28T02:49:28.233Z,16.67
2019-03-28T02:51:58.265Z,16.20
2019-03-28T02:54:28.371Z,15.40
2019-03-28T02:56:58.907Z,14.60
2019-03-28T02:59:28.998Z,15.33
2019-03-28T03:01:59.052Z,15.43
2019-03-28T03:04:29.036Z,14.57
2019-03-28T03:06:59.135Z,16.47
2019-03-28T03:09:29.158Z,15.30
2019-03-28T03:11:59.234Z,16.07
2019-03-28T03:14:29.304Z,16.17
2019-03-28T03:16:59.485Z,16.23
2019-03-28T03:19:29.950Z,16.90
2019-03-28T03:21:59.974Z,16.40
2019-03-28T03:24:30.063Z,15.40
2019-03-28T03:27:00.068Z,17.10
2019-03-28T03:29:30.109Z,16.67
2019-03-28T03:32:00.209Z,16.73
2019-03-28T03:34:30.289Z,17.20
2019-03-28T03:37:00.643Z,17.10
2019-03-28T03:39:30.710Z,17.07
2019-03-28T03:42:00.895Z,16.73
2019-03-28T03:44:31.107Z,16.73
2019-03-28T03:47:01.302Z,16.57
2019-03-28T03:49:31.368Z,17.63
2019-03-28T03:52:01.461Z,16.13
2019-03-28T03:54:31.552Z,16.87
2019-03-28T03:57:01.587Z,17.30
2019-03-28T03:59:31.636Z,16.70
2019-03-28T04:02:01.700Z,16.73
2019-03-28T04:04:31.792Z,16.27
2019-03-28T04:07:01.958Z,16.63
2019-03-28T04:09:32.049Z,16.03
2019-03-28T04:12:02.146Z,16.03
2019-03-28T04:14:32.249Z,16.40
2019-03-28T04:17:02.397Z,15.87
2019-03-28T04:19:32.558Z,15.23
2019-03-28T04:22:02.710Z,15.70
2019-03-28T04:24:32.794Z,16.00
2019-03-28T04:27:02.891Z,15.17
2019-03-28T04:29:32.997Z,16.70
2019-03-28T04:32:03.073Z,16.50
2019-03-28T04:34:33.148Z,15.07
2019-03-28T04:37:03.477Z,16.77
2019-03-28T04:39:33.571Z,16.03
2019-03-28T04:42:03.768Z,15.00
2019-03-28T04:44:33.860Z,15.93
2019-03-28T04:47:03.946Z,16.13
2019-03-28T04:49:34.195Z,15.97
2019-03-28T04:52:04.305Z,16.03
2019-03-28T04:54:34.475Z,17.23
2019-03-28T04:57:04.666Z,16.53
2019-03-28T04:59:34.757Z,15.50
2019-03-28T05:02:05.416Z,16.97
2019-03-28T05:04:36.159Z,18.53
2019-03-28T05:07:06.423Z,18.90
2019-03-28T05:09:36.581Z,19.63
2019-03-28T05:12:06.873Z,19.60
2019-03-28T05:14:37.047Z,19.27
2019-03-28T05:17:07.245Z,19.40
2019-03-28T05:19:37.467Z,18.47
2019-03-28T05:22:07.618Z,18.40
2019-03-28T05:24:37.850Z,18.57
2019-03-28T05:27:08.102Z,17.60
2019-03-28T05:29:38.194Z,16.40
2019-03-28T05:32:08.319Z,15.90
2019-03-28T05:34:38.506Z,14.93
2019-03-28T05:37:08.676Z,16.03
2019-03-28T05:39:38.816Z,15.77
2019-03-28T05:42:08.931Z,15.33
2019-03-28T05:44:39.028Z,17.07
2019-03-28T05:47:09.152Z,19.23
2019-03-28T05:49:39.254Z,18.17
2019-03-28T05:52:11.739Z,16.07
2019-03-28T05:54:41.020Z,15.73
2019-03-28T05:57:11.237Z,16.00
2019-03-28T05:59:41.311Z,14.03
2019-03-28T06:02:11.789Z,13.37
2019-03-28T06:04:41.819Z,14.70
2019-03-28T06:07:14.882Z,13.40
2019-03-28T06:09:44.892Z,12.93
2019-03-28T06:12:14.894Z,12.87
2019-03-28T06:14:44.961Z,13.40
2019-03-28T06:17:14.976Z,13.33
2019-03-28T06:19:44.972Z,13.07
2019-03-28T06:22:15.043Z,13.93
2019-03-28T06:24:45.066Z,12.70
2019-03-28T06:27:15.092Z,12.37
2019-03-28T06:29:45.124Z,12.53
2019-03-28T06:32:15.174Z,11.87
2019-03-28T06:34:45.240Z,12.60
2019-03-28T06:37:15.280Z,12.20
2019-03-28T06:39:45.334Z,11.87
2019-03-28T06:42:15.372Z,12.20
2019-03-28T06:44:45.424Z,11.73
2019-03-28T06:47:15.448Z,10.47
2019-03-28T06:49:45.514Z,11.03
2019-03-28T06:52:15.550Z,11.00
2019-03-28T06:54:45.554Z,11.33
2019-03-28T06:57:17.694Z,11.10
2019-03-28T06:59:47.230Z,10.80
2019-03-28T07:02:17.435Z,10.10
2019-03-28T07:04:47.580Z,10.20
2019-03-28T07:07:18.570Z,10.57
2019-03-28T07:09:48.696Z,10.00
2019-03-28T07:12:18.724Z,10.37
2019-03-28T07:14:48.772Z,9.80
2019-03-28T07:17:18.846Z,9.67
2019-03-28T07:19:49.059Z,9.93
2019-03-28T07:22:19.390Z,10.10
2019-03-28T07:24:49.486Z,10.17
2019-03-28T07:27:19.518Z,9.73
2019-03-28T07:29:51.231Z,9.77
2019-03-28T07:32:21.281Z,10.60
2019-03-28T07:34:51.390Z,9.97
2019-03-28T07:37:21.492Z,9.57
2019-03-28T07:39:51.552Z,9.70
2019-03-28T07:42:21.764Z,10.10
2019-03-28T07:44:51.865Z,9.77
2019-03-28T07:47:22.341Z,9.37
2019-03-28T07:49:52.400Z,9.60
2019-03-28T07:52:22.565Z,8.00
2019-03-28T07:54:52.881Z,8.37
2019-03-28T07:57:22.946Z,7.57
2019-03-28T08:00:03.521Z,7.60
2019-03-28T08:02:24.640Z,7.57
2019-03-28T08:04:54.678Z,7.43
2019-03-28T08:07:24.710Z,8.10
2019-03-28T08:09:54.842Z,7.70
2019-03-28T08:12:25.180Z,7.17
2019-03-28T08:14:55.164Z,5.80
2019-03-28T08:17:25.186Z,5.73
2019-03-28T08:19:55.481Z,5.23
2019-03-28T08:22:25.520Z,5.37
2019-03-28T08:24:55.536Z,6.10
2019-03-28T08:27:25.636Z,6.00
2019-03-28T08:29:57.783Z,5.47
2019-03-28T08:32:27.997Z,5.97
2019-03-28T08:34:58.324Z,6.07
2019-03-28T08:37:28.963Z,6.50
2019-03-28T08:39:59.026Z,6.03
2019-03-28T08:42:29.088Z,6.07
2019-03-28T08:44:59.403Z,5.90
2019-03-28T08:47:29.407Z,5.37
2019-03-28T08:49:59.568Z,5.53
2019-03-28T08:52:29.922Z,5.60
2019-03-28T08:55:00.073Z,5.63
2019-03-28T08:57:30.156Z,5.87
2019-03-28T09:00:00.447Z,5.90
2019-03-28T09:02:30.610Z,6.07
2019-03-28T09:05:00.754Z,6.40
2019-03-28T09:07:30.755Z,6.20
2019-03-28T09:10:00.811Z,6.37
2019-03-28T09:12:30.889Z,6.17
2019-03-28T09:15:00.888Z,6.23
2019-03-28T09:17:30.951Z,6.53
2019-03-28T09:20:00.956Z,6.27
2019-03-28T09:22:30.961Z,6.10
2019-03-28T09:25:01.084Z,5.60
2019-03-28T09:27:31.060Z,5.67
2019-03-28T09:30:01.059Z,5.83
2019-03-28T09:32:31.812Z,6.27
2019-03-28T09:35:02.024Z,6.13
2019-03-28T09:37:32.068Z,5.53
2019-03-28T09:40:02.121Z,5.43
2019-03-28T09:42:32.218Z,6.10
2019-03-28T09:45:02.269Z,5.37
2019-03-28T09:47:32.369Z,5.63
2019-03-28T09:50:02.418Z,5.40
2019-03-28T09:52:32.465Z,5.70
2019-03-28T09:55:02.506Z,5.03
2019-03-28T09:57:32.646Z,5.00
2019-03-28T10:00:02.709Z,4.23
2019-03-28T10:02:32.792Z,4.80
2019-03-28T10:05:02.940Z,4.20
2019-03-28T10:07:32.950Z,3.50
2019-03-28T10:10:03.165Z,4.33
2019-03-28T10:12:34.374Z,3.87
2019-03-28T10:15:04.588Z,3.75
2019-03-28T10:17:34.758Z,4.58
2019-03-28T10:20:05.777Z,4.37
2019-03-28T10:22:36.075Z,3.83
2019-03-28T10:25:07.278Z,4.37
2019-03-28T10:27:38.469Z,4.22
2019-03-28T10:30:09.145Z,4.83
2019-03-28T10:32:39.345Z,4.58
2019-03-28T10:35:09.471Z,4.47
2019-03-28T10:37:39.783Z,4.80
2019-03-28T10:40:10.109Z,4.90
2019-03-28T10:42:40.178Z,4.03
2019-03-28T10:45:10.214Z,4.45
2019-03-28T10:47:40.432Z,4.40
2019-03-28T10:50:10.614Z,4.25
2019-03-28T10:52:40.676Z,4.60
2019-03-28T10:55:10.733Z,4.20
2019-03-28T10:57:40.818Z,4.33
2019-03-28T11:00:23.527Z,4.20
2019-03-28T11:02:43.398Z,3.37
2019-03-28T11:05:14.482Z,3.47
2019-03-28T11:07:44.752Z,3.83
2019-03-28T11:10:15.124Z,4.08
2019-03-28T11:12:45.171Z,3.87
2019-03-28T11:15:15.436Z,4.30
2019-03-28T11:17:45.604Z,4.42
2019-03-28T11:20:15.819Z,3.72
2019-03-28T11:22:45.968Z,5.43
2019-03-28T11:25:16.121Z,3.83
2019-03-28T11:27:46.367Z,3.33
2019-03-28T11:30:18.548Z,3.77
2019-03-28T11:32:48.993Z,3.70
2019-03-28T11:35:19.092Z,3.70
2019-03-28T11:37:49.150Z,3.92
2019-03-28T11:40:19.199Z,4.05
2019-03-28T11:42:51.867Z,4.30
2019-03-28T11:45:20.881Z,4.28
2019-03-28T11:47:50.967Z,4.20
2019-03-28T11:50:21.098Z,4.10
2019-03-28T11:52:51.169Z,4.00
2019-03-28T11:55:21.231Z,3.08
2019-03-28T11:57:51.385Z,3.62
2019-03-28T12:00:21.623Z,3.75
2019-03-28T12:02:52.020Z,3.67
2019-03-28T12:05:22.045Z,3.15
2019-03-28T12:07:52.214Z,3.12
2019-03-28T12:10:22.434Z,2.77
2019-03-28T12:12:52.597Z,2.83
2019-03-28T12:15:22.995Z,3.30
2019-03-28T12:17:53.092Z,2.97
2019-03-28T12:20:23.130Z,3.40
2019-03-28T12:22:55.977Z,3.17
2019-03-28T12:25:24.995Z,3.30
2019-03-28T12:27:55.323Z,3.10
2019-03-28T12:30:25.311Z,3.12
2019-03-28T12:32:55.373Z,3.10
2019-03-28T12:35:25.368Z,2.90
2019-03-28T12:37:56.409Z,2.83
2019-03-28T12:40:26.424Z,2.90
2019-03-28T12:42:56.439Z,2.63
2019-03-28T12:45:26.591Z,2.65
2019-03-28T12:47:56.754Z,2.83
2019-03-28T12:50:26.800Z,3.00
2019-03-28T12:52:58.377Z,2.42
2019-03-28T12:55:28.968Z,3.27
2019-03-28T12:57:58.971Z,2.85
2019-03-28T13:00:38.600Z,3.22
2019-03-28T13:03:08.728Z,2.62
2019-03-28T13:05:38.766Z,2.52
2019-03-28T13:08:09.024Z,2.17
2019-03-28T13:10:39.102Z,2.33
2019-03-28T13:13:09.338Z,2.60
2019-03-28T13:15:39.805Z,2.58
2019-03-28T13:18:09.829Z,2.45
2019-03-28T13:20:39.922Z,2.77
2019-03-28T13:23:10.020Z,2.12
2019-03-28T13:25:40.051Z,2.23
2019-03-28T13:28:10.179Z,2.30
2019-03-28T13:30:40.404Z,2.10
2019-03-28T13:33:10.549Z,1.92
2019-03-28T13:35:40.614Z,1.92
2019-03-28T13:38:10.735Z,2.30
2019-03-28T13:40:40.766Z,2.60
2019-03-28T13:43:10.776Z,2.50
2019-03-28T13:45:40.802Z,2.33
2019-03-28T13:48:13.703Z,2.60
2019-03-28T13:50:42.515Z,2.60
2019-03-28T13:53:12.548Z,2.22
2019-03-28T13:55:42.640Z,2.47
2019-03-28T13:58:13.811Z,2.47
2019-03-28T14:00:44.282Z,2.40
2019-03-28T14:03:14.400Z,2.25
2019-03-28T14:05:45.205Z,2.13
2019-03-28T14:08:15.456Z,1.95
2019-03-28T14:10:45.580Z,2.10
2019-03-28T14:13:15.757Z,2.15
2019-03-28T14:15:45.890Z,2.22
2019-03-28T14:18:16.066Z,1.98
2019-03-28T14:20:46.402Z,1.50
2019-03-28T14:23:16.559Z,1.37
2019-03-28T14:25:46.712Z,1.65
2019-03-28T14:28:16.937Z,1.67
2019-03-28T14:30:47.031Z,1.57
2019-03-28T14:33:17.362Z,1.80
2019-03-28T14:35:47.377Z,1.60
2019-03-28T14:38:17.461Z,1.37
2019-03-28T14:40:47.890Z,1.40
2019-03-28T14:43:17.903Z,1.50
2019-03-28T14:45:47.954Z,1.70
2019-03-28T14:48:18.109Z,1.63
2019-03-28T14:50:48.141Z,1.55
2019-03-28T14:53:18.471Z,1.40
2019-03-28T14:55:49.303Z,1.37
2019-03-28T14:58:21.903Z,1.63
2019-03-28T15:00:53.259Z,1.75
2019-03-28T15:03:27.450Z,1.52
2019-03-28T15:05:55.082Z,1.80
2019-03-28T15:08:25.259Z,1.70
2019-03-28T15:10:55.273Z,1.55
2019-03-28T15:13:25.298Z,1.90
2019-03-28T15:15:55.329Z,1.77
2019-03-28T15:18:25.575Z,1.50
2019-03-28T15:20:55.616Z,1.52
2019-03-28T15:23:25.653Z,1.40
2019-03-28T15:25:55.693Z,1.43
2019-03-28T15:28:25.783Z,1.90
2019-03-28T15:30:55.981Z,1.70
2019-03-28T15:33:38.650Z,1.30
2019-03-28T15:35:57.678Z,1.98
2019-03-28T15:38:31.101Z,1.63
2019-03-28T15:40:59.503Z,1.72
2019-03-28T15:43:29.525Z,2.50
2019-03-28T15:45:59.766Z,2.43
2019-03-28T15:48:29.879Z,2.53
2019-03-28T15:50:59.992Z,2.27
2019-03-28T15:53:30.056Z,2.70
2019-03-28T15:56:00.182Z,2.37
2019-03-28T15:58:30.148Z,2.27
2019-03-28T16:01:00.206Z,1.90
2019-03-28T16:03:30.284Z,2.33
2019-03-28T16:06:00.318Z,2.27
2019-03-28T16:08:30.754Z,2.10
2019-03-28T16:11:00.780Z,2.40
2019-03-28T16:13:30.930Z,2.13
2019-03-28T16:16:00.893Z,2.17
2019-03-28T16:18:30.939Z,2.70
2019-03-28T16:21:01.248Z,2.20
2019-03-28T16:23:31.234Z,2.10
2019-03-28T16:26:01.294Z,2.80
2019-03-28T16:28:31.335Z,4.13
2019-03-28T16:31:01.336Z,3.80
2019-03-28T16:33:32.521Z,3.77
2019-03-28T16:36:02.515Z,4.50
2019-03-28T16:38:33.023Z,3.70
2019-03-28T16:41:03.214Z,4.60
2019-03-28T16:43:34.164Z,4.47
2019-03-28T16:46:07.543Z,4.50
2019-03-28T16:48:36.130Z,4.93
2019-03-28T16:51:06.197Z,6.43
2019-03-28T16:53:36.286Z,6.33
2019-03-28T16:56:06.318Z,6.20
2019-03-28T16:58:36.377Z,5.93
2019-03-28T17:01:06.492Z,5.67
2019-03-28T17:03:36.504Z,3.87
2019-03-28T17:06:07.205Z,4.03
2019-03-28T17:08:38.026Z,4.40
2019-03-28T17:11:11.952Z,4.53
2019-03-28T17:13:40.524Z,5.50
2019-03-28T17:16:10.591Z,5.30
2019-03-28T17:18:40.619Z,5.13
2019-03-28T17:21:10.693Z,6.73
2019-03-28T17:23:40.724Z,6.63
2019-03-28T17:26:10.714Z,7.80
2019-03-28T17:28:40.798Z,9.37
2019-03-28T17:31:10.832Z,10.50
2019-03-28T17:33:40.861Z,10.13
2019-03-28T17:36:10.934Z,20.80
2019-03-28T17:38:40.950Z,40.00
2019-03-28T17:41:10.980Z,29.20
2019-03-28T17:43:41.824Z,29.17
2019-03-28T17:46:12.617Z,27.77
2019-03-28T17:48:42.794Z,29.70
2019-03-28T17:51:12.840Z,22.30
2019-03-28T17:53:42.819Z,21.27
2019-03-28T17:56:12.809Z,20.50
2019-03-28T17:58:43.169Z,21.10
2019-03-28T18:01:13.149Z,22.27
2019-03-28T18:03:43.168Z,22.87
2019-03-28T18:06:13.157Z,23.30
2019-03-28T18:08:43.232Z,28.73
2019-03-28T18:11:13.257Z,24.37
2019-03-28T18:13:43.311Z,18.57
2019-03-28T18:16:13.493Z,17.47
2019-03-28T18:18:43.515Z,17.53
2019-03-28T18:21:13.515Z,15.27
2019-03-28T18:23:43.634Z,15.00
2019-03-28T18:26:13.634Z,14.93
2019-03-28T18:28:43.608Z,15.40
2019-03-28T18:31:13.617Z,15.90
2019-03-28T18:33:43.666Z,18.33
2019-03-28T18:36:13.681Z,22.23
2019-03-28T18:38:43.737Z,23.17
2019-03-28T18:41:13.751Z,25.67
2019-03-28T18:43:43.773Z,23.90
2019-03-28T18:46:14.938Z,23.50
2019-03-28T18:48:45.186Z,23.50
2019-03-28T18:51:15.480Z,23.33
2019-03-28T18:53:46.068Z,28.10
2019-03-28T18:56:16.355Z,25.70
2019-03-28T18:58:46.433Z,24.23
2019-03-28T19:01:16.764Z,24.40
2019-03-28T19:03:47.442Z,24.60
2019-03-28T19:06:17.979Z,26.27
2019-03-28T19:08:48.150Z,28.03
2019-03-28T19:11:18.253Z,29.10
2019-03-28T19:13:48.773Z,30.77
2019-03-28T19:16:21.628Z,31.53
2019-03-28T19:18:51.807Z,31.27
2019-03-28T19:21:21.957Z,26.07
2019-03-28T19:23:52.139Z,25.33
2019-03-28T19:26:22.287Z,23.77
2019-03-28T19:28:52.423Z,25.10
2019-03-28T19:31:22.487Z,26.10
2019-03-28T19:33:52.610Z,27.13
2019-03-28T19:36:24.057Z,27.40
2019-03-28T19:38:54.418Z,29.80
2019-03-28T19:41:24.765Z,27.77
2019-03-28T19:43:56.301Z,25.03
2019-03-28T19:46:26.410Z,24.80
2019-03-28T19:48:56.453Z,22.30
2019-03-28T19:51:28.349Z,22.03
2019-03-28T19:53:58.202Z,19.37
2019-03-28T19:56:28.368Z,23.93
2019-03-28T19:58:59.223Z,20.93
2019-03-28T20:01:29.442Z,18.13
2019-03-28T20:03:59.508Z,19.60
2019-03-28T20:06:29.496Z,17.13
2019-03-28T20:08:59.573Z,19.10
2019-03-28T20:11:29.614Z,17.83
2019-03-28T20:13:59.651Z,17.00
2019-03-28T20:16:29.747Z,17.77
2019-03-28T20:19:00.011Z,18.53
2019-03-28T20:21:30.005Z,20.10
2019-03-28T20:24:00.081Z,20.13
2019-03-28T20:26:30.212Z,21.77
2019-03-28T20:29:00.262Z,19.53
2019-03-28T20:31:30.365Z,21.30
2019-03-28T20:34:00.716Z,20.97
2019-03-28T20:36:38.581Z,18.33
2019-03-28T20:39:04.188Z,19.17
2019-03-28T20:41:34.473Z,19.33
2019-03-28T20:44:04.571Z,18.67
2019-03-28T20:46:35.071Z,22.07
2019-03-28T20:49:05.210Z,23.70
2019-03-28T20:51:35.661Z,26.00
2019-03-28T20:54:07.781Z,27.07
2019-03-28T20:56:37.708Z,28.53
2019-03-28T20:59:08.022Z,29.67
2019-03-28T21:01:38.118Z,31.27
2019-03-28T21:04:08.291Z,31.93
2019-03-28T21:06:38.806Z,32.50
2019-03-28T21:09:09.398Z,31.00
2019-03-28T21:11:39.588Z,31.03
2019-03-28T21:14:10.172Z,28.63
2019-03-28T21:16:40.234Z,29.77
2019-03-28T21:19:10.287Z,26.33
2019-03-28T21:21:40.372Z,27.10
2019-03-28T21:24:10.512Z,26.37
2019-03-28T21:26:41.083Z,27.03
2019-03-28T21:29:11.277Z,26.50
2019-03-28T21:31:49.767Z,24.73
2019-03-28T21:34:13.089Z,24.37
2019-03-28T21:36:43.075Z,23.27
2019-03-28T21:39:13.087Z,23.57
2019-03-28T21:41:43.136Z,24.20
2019-03-28T21:44:13.217Z,24.83
2019-03-28T21:46:43.235Z,23.23
2019-03-28T21:49:13.316Z,21.97
2019-03-28T21:51:45.807Z,24.03
2019-03-28T21:54:15.026Z,24.03
2019-03-28T21:57:01.504Z,24.37
2019-03-28T21:59:31.558Z,23.70
2019-03-28T22:02:01.692Z,22.60
2019-03-28T22:04:31.754Z,22.60
2019-03-28T22:07:01.768Z,20.90
2019-03-28T22:09:31.859Z,21.67
2019-03-28T22:12:02.838Z,22.27
2019-03-28T22:14:33.166Z,26.13
2019-03-28T22:17:03.195Z,26.13
2019-03-28T22:19:33.343Z,24.13
2019-03-28T22:22:03.464Z,22.07
2019-03-28T22:24:33.495Z,21.33
2019-03-28T22:27:03.638Z,22.43
2019-03-28T22:29:33.708Z,24.90
2019-03-28T22:32:03.891Z,22.67
2019-03-28T22:34:34.239Z,21.77
2019-03-28T22:37:04.269Z,21.77
2019-03-28T22:39:34.410Z,21.70
2019-03-28T22:42:04.660Z,20.93
2019-03-28T22:44:34.757Z,20.90
2019-03-28T22:47:06.002Z,21.07
2019-03-28T22:49:36.207Z,21.50
2019-03-28T22:52:06.519Z,21.67
2019-03-28T22:54:36.614Z,21.60
2019-03-28T22:57:06.960Z,23.30
2019-03-28T22:59:37.039Z,21.47
2019-03-28T23:02:07.216Z,22.47
2019-03-28T23:04:37.390Z,22.63
2019-03-28T23:07:11.259Z,23.43
2019-03-28T23:09:39.075Z,22.70
2019-03-28T23:12:09.490Z,24.77
2019-03-28T23:14:39.509Z,26.80
2019-03-28T23:17:09.878Z,29.87
2019-03-28T23:19:39.908Z,31.23
2019-03-28T23:22:10.014Z,34.07
2019-03-28T23:24:40.036Z,29.77
2019-03-28T23:27:10.101Z,29.90
2019-03-28T23:29:40.124Z,29.83
2019-03-28T23:32:10.113Z,29.30
2019-03-28T23:34:40.267Z,28.63
2019-03-28T23:37:23.922Z,29.00
2019-03-28T23:39:42.100Z,26.90
2019-03-28T23:42:12.427Z,24.47
2019-03-28T23:44:43.228Z,23.63
2019-03-28T23:47:13.222Z,27.10
2019-03-28T23:49:43.304Z,24.37
2019-03-28T23:52:13.361Z,23.87
2019-03-28T23:54:43.454Z,24.53
2019-03-28T23:57:13.488Z,26.07
2019-03-28T23:59:43.520Z,27.47
